sensor_id;sensor_type;location;lat;lon;timestamp;pressure;altitude;pressure_sealevel;temperature;humidity
65756;BME280;52489;47.502;18.940;2023-03-31T00:00:07;97793.31;;;9.03;100.00
65756;BME280;52489;47.502;18.940;2023-03-31T00:01:13;97788.06;;;9.03;100.00
65756;BME280;52489;47.502;18.940;2023-03-31T00:02:16;97798.44;;;9.08;100.00
65756;BME280;52489;47.502;18.940;2023-03-31T00:03:24;97795.81;;;9.08;100.00
65756;BME280;52489;47.502;18.940;2023-03-31T00:04:28;97784.56;;;9.08;100.00
65756;BME280;52489;47.502;18.940;2023-03-31T00:05:35;97786.53;;;9.02;100.00
65756;BME280;52489;47.502;18.940;2023-03-31T00:06:41;97791.88;;;9.11;100.00
65756;BME280;52489;47.502;18.940;2023-03-31T00:07:43;97787.88;;;9.14;100.00
65756;BME280;52489;47.502;18.940;2023-03-31T00:08:47;97789.03;;;9.07;100.00
65756;BME280;52489;47.502;18.940;2023-03-31T00:09:54;97784.19;;;9.01;100.00
65756;BME280;52489;47.502;18.940;2023-03-31T00:11:17;97789.72;;;8.99;100.00
65756;BME280;52489;47.502;18.940;2023-03-31T00:12:20;97789.34;;;9.06;100.00
65756;BME280;52489;47.502;18.940;2023-03-31T00:13:23;97779.16;;;9.04;100.00
65756;BME280;52489;47.502;18.940;2023-03-31T00:14:26;97779.28;;;8.99;100.00
65756;BME280;52489;47.502;18.940;2023-03-31T00:15:28;97776.37;;;9.01;100.00
65756;BME280;52489;47.502;18.940;2023-03-31T00:16:33;97772.69;;;9.02;100.00
65756;BME280;52489;47.502;18.940;2023-03-31T00:17:36;97781.19;;;9.07;100.00
65756;BME280;52489;47.502;18.940;2023-03-31T00:18:39;97783.13;;;9.02;100.00
65756;BME280;52489;47.502;18.940;2023-03-31T00:19:49;97778.22;;;9.00;100.00
65756;BME280;52489;47.502;18.940;2023-03-31T00:20:53;97781.41;;;9.11;100.00
65756;BME280;52489;47.502;18.940;2023-03-31T00:21:56;97776.28;;;9.06;100.00
65756;BME280;52489;47.502;18.940;2023-03-31T00:23:04;97783.34;;;9.05;100.00
65756;BME280;52489;47.502;18.940;2023-03-31T00:24:13;97788.34;;;9.02;100.00
65756;BME280;52489;47.502;18.940;2023-03-31T00:25:17;97783.03;;;9.07;100.00
65756;BME280;52489;47.502;18.940;2023-03-31T00:26:19;97788.94;;;8.99;100.00
65756;BME280;52489;47.502;18.940;2023-03-31T00:27:24;97783.25;;;8.97;100.00
65756;BME280;52489;47.502;18.940;2023-03-31T00:28:26;97783.53;;;8.95;100.00
65756;BME280;52489;47.502;18.940;2023-03-31T00:29:30;97789.63;;;8.91;100.00
65756;BME280;52489;47.502;18.940;2023-03-31T00:30:32;97787.88;;;8.86;100.00
65756;BME280;52489;47.502;18.940;2023-03-31T00:31:35;97780.88;;;8.81;100.00
65756;BME280;52489;47.502;18.940;2023-03-31T00:32:40;97783.91;;;8.88;100.00
65756;BME280;52489;47.502;18.940;2023-03-31T00:33:43;97775.13;;;8.84;100.00
65756;BME280;52489;47.502;18.940;2023-03-31T00:34:46;97777.50;;;8.81;100.00
65756;BME280;52489;47.502;18.940;2023-03-31T00:35:50;97771.31;;;8.77;100.00
65756;BME280;52489;47.502;18.940;2023-03-31T00:36:53;97778.59;;;8.80;100.00
65756;BME280;52489;47.502;18.940;2023-03-31T00:37:58;97773.84;;;8.82;100.00
65756;BME280;52489;47.502;18.940;2023-03-31T00:39:04;97774.72;;;8.91;100.00
65756;BME280;52489;47.502;18.940;2023-03-31T00:40:10;97771.03;;;8.92;100.00
65756;BME280;52489;47.502;18.940;2023-03-31T00:41:14;97761.09;;;8.94;100.00
65756;BME280;52489;47.502;18.940;2023-03-31T00:42:17;97768.25;;;8.88;100.00
65756;BME280;52489;47.502;18.940;2023-03-31T00:43:27;97765.22;;;8.81;100.00
65756;BME280;52489;47.502;18.940;2023-03-31T00:46:19;97762.53;;;8.86;100.00
65756;BME280;52489;47.502;18.940;2023-03-31T00:47:28;97764.94;;;8.83;100.00
65756;BME280;52489;47.502;18.940;2023-03-31T00:48:32;97766.88;;;8.77;100.00
65756;BME280;52489;47.502;18.940;2023-03-31T00:49:39;97762.72;;;8.76;100.00
65756;BME280;52489;47.502;18.940;2023-03-31T00:50:48;97769.78;;;8.76;100.00
65756;BME280;52489;47.502;18.940;2023-03-31T00:52:11;97765.78;;;8.78;100.00
65756;BME280;52489;47.502;18.940;2023-03-31T00:53:19;97766.22;;;8.99;100.00
65756;BME280;52489;47.502;18.940;2023-03-31T00:54:26;97765.91;;;8.87;100.00
65756;BME280;52489;47.502;18.940;2023-03-31T00:55:41;97766.97;;;8.86;100.00
65756;BME280;52489;47.502;18.940;2023-03-31T00:56:47;97766.41;;;8.89;100.00
65756;BME280;52489;47.502;18.940;2023-03-31T00:57:50;97764.66;;;9.12;100.00
65756;BME280;52489;47.502;18.940;2023-03-31T00:59:01;97760.78;;;9.09;100.00
65756;BME280;52489;47.502;18.940;2023-03-31T01:00:08;97758.75;;;8.93;100.00
65756;BME280;52489;47.502;18.940;2023-03-31T01:01:20;97755.25;;;8.83;100.00
65756;BME280;52489;47.502;18.940;2023-03-31T01:02:27;97761.84;;;8.81;100.00
65756;BME280;52489;47.502;18.940;2023-03-31T01:03:30;97753.53;;;8.79;100.00
65756;BME280;52489;47.502;18.940;2023-03-31T01:04:38;97744.81;;;8.83;100.00
65756;BME280;52489;47.502;18.940;2023-03-31T01:06:55;97753.75;;;8.96;100.00
65756;BME280;52489;47.502;18.940;2023-03-31T01:08:04;97743.94;;;9.16;100.00
65756;BME280;52489;47.502;18.940;2023-03-31T01:09:07;97755.25;;;9.25;100.00
65756;BME280;52489;47.502;18.940;2023-03-31T01:10:11;97750.13;;;9.20;100.00
65756;BME280;52489;47.502;18.940;2023-03-31T01:11:16;97745.69;;;9.06;100.00
65756;BME280;52489;47.502;18.940;2023-03-31T01:12:21;97740.69;;;8.96;100.00
65756;BME280;52489;47.502;18.940;2023-03-31T01:13:25;97740.19;;;8.94;100.00
65756;BME280;52489;47.502;18.940;2023-03-31T01:14:30;97736.13;;;8.88;100.00
65756;BME280;52489;47.502;18.940;2023-03-31T01:15:33;97742.88;;;8.89;100.00
65756;BME280;52489;47.502;18.940;2023-03-31T01:16:35;97735.44;;;8.82;100.00
65756;BME280;52489;47.502;18.940;2023-03-31T01:17:42;97740.38;;;8.70;100.00
65756;BME280;52489;47.502;18.940;2023-03-31T01:18:47;97746.53;;;8.60;100.00
65756;BME280;52489;47.502;18.940;2023-03-31T01:22:55;97738.25;;;8.58;100.00
65756;BME280;52489;47.502;18.940;2023-03-31T01:26:46;97747.34;;;8.28;100.00
65756;BME280;52489;47.502;18.940;2023-03-31T01:41:18;97753.16;;;8.06;100.00
65756;BME280;52489;47.502;18.940;2023-03-31T01:42:33;97751.06;;;8.08;100.00
65756;BME280;52489;47.502;18.940;2023-03-31T01:45:18;97750.28;;;8.08;100.00
65756;BME280;52489;47.502;18.940;2023-03-31T01:46:31;97742.16;;;8.09;100.00
65756;BME280;52489;47.502;18.940;2023-03-31T01:47:44;97747.38;;;8.09;100.00
65756;BME280;52489;47.502;18.940;2023-03-31T01:50:41;97746.78;;;8.12;100.00
65756;BME280;52489;47.502;18.940;2023-03-31T01:52:07;97756.62;;;8.02;100.00
65756;BME280;52489;47.502;18.940;2023-03-31T01:53:20;97753.91;;;7.93;100.00
65756;BME280;52489;47.502;18.940;2023-03-31T01:54:45;97753.97;;;7.88;100.00
65756;BME280;52489;47.502;18.940;2023-03-31T01:56:01;97752.75;;;7.80;100.00
65756;BME280;52489;47.502;18.940;2023-03-31T01:57:12;97754.59;;;7.80;100.00
65756;BME280;52489;47.502;18.940;2023-03-31T01:58:37;97748.22;;;7.72;100.00
65756;BME280;52489;47.502;18.940;2023-03-31T01:59:57;97749.69;;;7.78;100.00
65756;BME280;52489;47.502;18.940;2023-03-31T02:01:06;97755.22;;;7.71;100.00
65756;BME280;52489;47.502;18.940;2023-03-31T02:02:18;97757.38;;;7.69;100.00
65756;BME280;52489;47.502;18.940;2023-03-31T02:03:28;97760.09;;;7.59;100.00
65756;BME280;52489;47.502;18.940;2023-03-31T02:04:44;97754.53;;;7.66;100.00
65756;BME280;52489;47.502;18.940;2023-03-31T02:05:54;97758.00;;;7.61;100.00
65756;BME280;52489;47.502;18.940;2023-03-31T02:07:10;97748.91;;;7.59;100.00
65756;BME280;52489;47.502;18.940;2023-03-31T02:08:21;97759.13;;;7.55;100.00
65756;BME280;52489;47.502;18.940;2023-03-31T02:09:33;97757.00;;;7.76;100.00
65756;BME280;52489;47.502;18.940;2023-03-31T02:10:39;97748.69;;;7.74;100.00
65756;BME280;52489;47.502;18.940;2023-03-31T02:11:45;97751.44;;;7.64;100.00
65756;BME280;52489;47.502;18.940;2023-03-31T02:12:50;97753.97;;;7.69;100.00
65756;BME280;52489;47.502;18.940;2023-03-31T02:13:53;97750.81;;;7.72;100.00
65756;BME280;52489;47.502;18.940;2023-03-31T02:14:59;97746.84;;;7.74;100.00
65756;BME280;52489;47.502;18.940;2023-03-31T02:16:07;97741.16;;;7.72;100.00
65756;BME280;52489;47.502;18.940;2023-03-31T02:17:16;97742.63;;;7.60;100.00
65756;BME280;52489;47.502;18.940;2023-03-31T02:18:23;97737.19;;;7.56;100.00
65756;BME280;52489;47.502;18.940;2023-03-31T02:19:31;97730.72;;;7.53;100.00
65756;BME280;52489;47.502;18.940;2023-03-31T02:20:37;97730.72;;;7.53;100.00
65756;BME280;52489;47.502;18.940;2023-03-31T02:21:40;97732.84;;;7.51;100.00
65756;BME280;52489;47.502;18.940;2023-03-31T02:22:52;97728.88;;;7.54;100.00
65756;BME280;52489;47.502;18.940;2023-03-31T02:23:58;97729.13;;;7.58;100.00
65756;BME280;52489;47.502;18.940;2023-03-31T02:25:05;97729.94;;;7.53;100.00
65756;BME280;52489;47.502;18.940;2023-03-31T02:26:16;97731.06;;;7.47;100.00
65756;BME280;52489;47.502;18.940;2023-03-31T02:27:24;97729.09;;;7.39;100.00
65756;BME280;52489;47.502;18.940;2023-03-31T02:28:29;97730.94;;;7.38;100.00
65756;BME280;52489;47.502;18.940;2023-03-31T02:29:32;97727.81;;;7.36;100.00
65756;BME280;52489;47.502;18.940;2023-03-31T02:30:43;97734.88;;;7.36;100.00
65756;BME280;52489;47.502;18.940;2023-03-31T02:32:05;97728.13;;;7.35;100.00
65756;BME280;52489;47.502;18.940;2023-03-31T02:33:11;97728.47;;;7.28;100.00
65756;BME280;52489;47.502;18.940;2023-03-31T02:34:14;97723.41;;;7.37;100.00
65756;BME280;52489;47.502;18.940;2023-03-31T02:35:18;97725.31;;;7.31;100.00
65756;BME280;52489;47.502;18.940;2023-03-31T02:36:23;97725.62;;;7.24;100.00
65756;BME280;52489;47.502;18.940;2023-03-31T02:37:27;97721.69;;;7.08;100.00
65756;BME280;52489;47.502;18.940;2023-03-31T02:38:36;97717.75;;;7.11;100.00
65756;BME280;52489;47.502;18.940;2023-03-31T02:39:43;97727.81;;;7.17;100.00
65756;BME280;52489;47.502;18.940;2023-03-31T02:40:48;97723.66;;;7.16;100.00
65756;BME280;52489;47.502;18.940;2023-03-31T02:41:50;97724.16;;;7.18;100.00
65756;BME280;52489;47.502;18.940;2023-03-31T02:42:53;97720.34;;;7.11;100.00
65756;BME280;52489;47.502;18.940;2023-03-31T02:43:56;97719.12;;;7.03;100.00
65756;BME280;52489;47.502;18.940;2023-03-31T02:45:04;97730.47;;;7.12;100.00
65756;BME280;52489;47.502;18.940;2023-03-31T02:46:08;97729.53;;;7.03;100.00
65756;BME280;52489;47.502;18.940;2023-03-31T02:47:13;97730.94;;;6.95;100.00
65756;BME280;52489;47.502;18.940;2023-03-31T02:48:31;97728.91;;;6.92;100.00
65756;BME280;52489;47.502;18.940;2023-03-31T02:49:36;97727.06;;;6.93;100.00
65756;BME280;52489;47.502;18.940;2023-03-31T02:59:19;97719.19;;;6.98;100.00
65756;BME280;52489;47.502;18.940;2023-03-31T03:02:07;97726.56;;;6.91;100.00
65756;BME280;52489;47.502;18.940;2023-03-31T03:05:49;97728.78;;;6.78;100.00
65756;BME280;52489;47.502;18.940;2023-03-31T03:08:25;97733.50;;;6.76;100.00
65756;BME280;52489;47.502;18.940;2023-03-31T03:10:03;97727.00;;;6.74;100.00
65756;BME280;52489;47.502;18.940;2023-03-31T03:11:24;97727.84;;;6.69;100.00
65756;BME280;52489;47.502;18.940;2023-03-31T03:15:47;97728.72;;;7.07;100.00
65756;BME280;52489;47.502;18.940;2023-03-31T03:17:13;97726.44;;;7.01;100.00
65756;BME280;52489;47.502;18.940;2023-03-31T03:18:17;97721.47;;;7.04;100.00
65756;BME280;52489;47.502;18.940;2023-03-31T03:19:21;97722.28;;;7.00;100.00
65756;BME280;52489;47.502;18.940;2023-03-31T03:20:25;97724.91;;;7.00;100.00
65756;BME280;52489;47.502;18.940;2023-03-31T03:21:28;97723.50;;;7.07;100.00
65756;BME280;52489;47.502;18.940;2023-03-31T03:22:31;97720.91;;;7.07;100.00
65756;BME280;52489;47.502;18.940;2023-03-31T03:23:34;97718.09;;;7.04;100.00
65756;BME280;52489;47.502;18.940;2023-03-31T03:24:37;97715.75;;;7.02;100.00
65756;BME280;52489;47.502;18.940;2023-03-31T03:25:41;97725.09;;;7.03;100.00
65756;BME280;52489;47.502;18.940;2023-03-31T03:26:44;97722.47;;;7.27;100.00
65756;BME280;52489;47.502;18.940;2023-03-31T03:27:47;97720.16;;;7.26;100.00
65756;BME280;52489;47.502;18.940;2023-03-31T03:28:50;97717.19;;;7.33;100.00
65756;BME280;52489;47.502;18.940;2023-03-31T03:29:53;97720.81;;;7.37;100.00
65756;BME280;52489;47.502;18.940;2023-03-31T03:30:56;97721.37;;;7.34;100.00
65756;BME280;52489;47.502;18.940;2023-03-31T03:31:59;97717.81;;;7.24;100.00
65756;BME280;52489;47.502;18.940;2023-03-31T03:33:02;97717.91;;;7.19;100.00
65756;BME280;52489;47.502;18.940;2023-03-31T03:34:08;97723.16;;;7.14;100.00
65756;BME280;52489;47.502;18.940;2023-03-31T03:35:11;97719.50;;;7.15;100.00
65756;BME280;52489;47.502;18.940;2023-03-31T03:36:14;97729.69;;;7.12;100.00
65756;BME280;52489;47.502;18.940;2023-03-31T03:37:18;97722.03;;;7.20;100.00
65756;BME280;52489;47.502;18.940;2023-03-31T03:38:21;97719.44;;;7.20;100.00
65756;BME280;52489;47.502;18.940;2023-03-31T03:39:24;97722.03;;;7.20;100.00
65756;BME280;52489;47.502;18.940;2023-03-31T03:40:27;97720.06;;;7.12;100.00
65756;BME280;52489;47.502;18.940;2023-03-31T03:41:30;97715.75;;;7.02;100.00
65756;BME280;52489;47.502;18.940;2023-03-31T03:42:34;97722.28;;;7.00;100.00
65756;BME280;52489;47.502;18.940;2023-03-31T03:43:37;97721.78;;;6.98;100.00
65756;BME280;52489;47.502;18.940;2023-03-31T03:44:40;97724.19;;;6.94;100.00
65756;BME280;52489;47.502;18.940;2023-03-31T03:45:47;97715.37;;;6.90;100.00
65756;BME280;52489;47.502;18.940;2023-03-31T03:46:50;97711.22;;;6.89;100.00
65756;BME280;52489;47.502;18.940;2023-03-31T03:47:53;97720.03;;;6.93;100.00
65756;BME280;52489;47.502;18.940;2023-03-31T03:48:55;97720.59;;;6.90;100.00
65756;BME280;52489;47.502;18.940;2023-03-31T03:49:58;97713.59;;;6.86;100.00
65756;BME280;52489;47.502;18.940;2023-03-31T03:51:02;97710.34;;;6.75;100.00
65756;BME280;52489;47.502;18.940;2023-03-31T03:52:05;97713.16;;;6.78;100.00
65756;BME280;52489;47.502;18.940;2023-03-31T03:53:07;97720.97;;;6.78;100.00
65756;BME280;52489;47.502;18.940;2023-03-31T03:54:11;97725.16;;;6.74;100.00
65756;BME280;52489;47.502;18.940;2023-03-31T03:55:13;97719.66;;;6.81;100.00
65756;BME280;52489;47.502;18.940;2023-03-31T03:56:16;97717.09;;;6.76;100.00
65756;BME280;52489;47.502;18.940;2023-03-31T03:57:19;97716.28;;;6.80;100.00
65756;BME280;52489;47.502;18.940;2023-03-31T03:58:22;97718.62;;;6.77;100.00
65756;BME280;52489;47.502;18.940;2023-03-31T03:59:25;97721.56;;;6.70;100.00
65756;BME280;52489;47.502;18.940;2023-03-31T04:00:28;97723.97;;;6.67;100.00
65756;BME280;52489;47.502;18.940;2023-03-31T04:01:31;97719.44;;;6.77;100.00
65756;BME280;52489;47.502;18.940;2023-03-31T04:02:34;97722.53;;;6.79;100.00
65756;BME280;52489;47.502;18.940;2023-03-31T04:03:37;97714.84;;;6.69;100.00
65756;BME280;52489;47.502;18.940;2023-03-31T04:04:39;97713.00;;;6.70;100.00
65756;BME280;52489;47.502;18.940;2023-03-31T04:05:42;97719.19;;;6.74;100.00
65756;BME280;52489;47.502;18.940;2023-03-31T04:06:45;97712.88;;;6.80;100.00
65756;BME280;52489;47.502;18.940;2023-03-31T04:07:48;97720.59;;;6.90;100.00
65756;BME280;52489;47.502;18.940;2023-03-31T04:08:51;97703.69;;;6.88;100.00
65756;BME280;52489;47.502;18.940;2023-03-31T04:09:53;97707.41;;;6.81;100.00
65756;BME280;52489;47.502;18.940;2023-03-31T04:10:56;97705.31;;;6.83;100.00
65756;BME280;52489;47.502;18.940;2023-03-31T04:11:59;97694.38;;;6.81;100.00
65756;BME280;52489;47.502;18.940;2023-03-31T04:13:02;97701.66;;;6.84;100.00
65756;BME280;52489;47.502;18.940;2023-03-31T04:14:05;97690.50;;;6.79;100.00
65756;BME280;52489;47.502;18.940;2023-03-31T04:15:08;97691.66;;;6.68;100.00
65756;BME280;52489;47.502;18.940;2023-03-31T04:16:11;97692.19;;;6.70;100.00
65756;BME280;52489;47.502;18.940;2023-03-31T04:17:14;97689.16;;;6.63;100.00
65756;BME280;52489;47.502;18.940;2023-03-31T04:18:17;97691.84;;;6.52;100.00
65756;BME280;52489;47.502;18.940;2023-03-31T04:19:25;97688.41;;;6.57;100.00
65756;BME280;52489;47.502;18.940;2023-03-31T04:20:29;97686.25;;;6.64;100.00
65756;BME280;52489;47.502;18.940;2023-03-31T04:21:33;97696.72;;;6.59;100.00
65756;BME280;52489;47.502;18.940;2023-03-31T04:22:36;97695.16;;;6.58;100.00
65756;BME280;52489;47.502;18.940;2023-03-31T04:23:42;97695.72;;;6.55;100.00
65756;BME280;52489;47.502;18.940;2023-03-31T04:24:48;97701.91;;;6.59;100.00
65756;BME280;52489;47.502;18.940;2023-03-31T04:25:54;97699.22;;;6.69;100.00
65756;BME280;52489;47.502;18.940;2023-03-31T04:26:58;97703.16;;;6.67;100.00
65756;BME280;52489;47.502;18.940;2023-03-31T04:28:01;97697.97;;;6.61;100.00
65756;BME280;52489;47.502;18.940;2023-03-31T04:29:05;97702.41;;;6.61;100.00
65756;BME280;52489;47.502;18.940;2023-03-31T04:30:09;97702.41;;;6.61;100.00
65756;BME280;52489;47.502;18.940;2023-03-31T04:31:13;97700.31;;;6.63;100.00
65756;BME280;52489;47.502;18.940;2023-03-31T04:32:28;97699.00;;;6.66;100.00
65756;BME280;52489;47.502;18.940;2023-03-31T04:33:34;97701.91;;;6.59;100.00
65756;BME280;52489;47.502;18.940;2023-03-31T04:34:40;97699.25;;;6.64;100.00
65756;BME280;52489;47.502;18.940;2023-03-31T04:35:47;97694.63;;;6.61;100.00
65756;BME280;52489;47.502;18.940;2023-03-31T04:36:51;97694.88;;;6.59;100.00
65756;BME280;52489;47.502;18.940;2023-03-31T04:37:57;97688.62;;;6.60;100.00
65756;BME280;52489;47.502;18.940;2023-03-31T04:39:01;97685.47;;;6.64;100.00
65756;BME280;52489;47.502;18.940;2023-03-31T04:40:04;97692.81;;;6.56;100.00
65756;BME280;52489;47.502;18.940;2023-03-31T04:41:10;97701.91;;;6.59;100.00
65756;BME280;52489;47.502;18.940;2023-03-31T04:42:13;97693.00;;;6.65;100.00
65756;BME280;52489;47.502;18.940;2023-03-31T04:43:17;97693.56;;;6.62;100.00
65756;BME280;52489;47.502;18.940;2023-03-31T04:44:20;97689.91;;;6.63;100.00
65756;BME280;52489;47.502;18.940;2023-03-31T04:45:23;97699.00;;;6.66;100.00
65756;BME280;52489;47.502;18.940;2023-03-31T04:46:26;97702.16;;;6.63;100.00
65756;BME280;52489;47.502;18.940;2023-03-31T04:47:29;97689.06;;;6.68;100.00
65756;BME280;52489;47.502;18.940;2023-03-31T04:48:32;97696.00;;;6.77;100.00
65756;BME280;52489;47.502;18.940;2023-03-31T04:49:35;97698.72;;;6.67;100.00
65756;BME280;52489;47.502;18.940;2023-03-31T04:50:38;97694.28;;;6.68;100.00
65756;BME280;52489;47.502;18.940;2023-03-31T04:51:41;97692.22;;;6.65;100.00
65756;BME280;52489;47.502;18.940;2023-03-31T04:52:43;97693.16;;;6.74;100.00
65756;BME280;52489;47.502;18.940;2023-03-31T04:53:46;97691.13;;;6.71;100.00
65756;BME280;52489;47.502;18.940;2023-03-31T04:54:49;97691.63;;;6.73;100.00
65756;BME280;52489;47.502;18.940;2023-03-31T04:55:52;97694.28;;;6.68;100.00
65756;BME280;52489;47.502;18.940;2023-03-31T04:56:55;97691.97;;;6.66;100.00
65756;BME280;52489;47.502;18.940;2023-03-31T04:57:58;97685.69;;;6.67;100.00
65756;BME280;52489;47.502;18.940;2023-03-31T04:59:01;97686.53;;;6.63;100.00
65756;BME280;52489;47.502;18.940;2023-03-31T05:00:06;97687.06;;;6.59;100.00
65756;BME280;52489;47.502;18.940;2023-03-31T05:01:09;97682.38;;;6.61;100.00
65756;BME280;52489;47.502;18.940;2023-03-31T05:02:22;97680.53;;;6.62;100.00
65756;BME280;52489;47.502;18.940;2023-03-31T05:03:26;97680.62;;;6.57;100.00
65756;BME280;52489;47.502;18.940;2023-03-31T05:04:30;97675.28;;;6.67;100.00
65756;BME280;52489;47.502;18.940;2023-03-31T05:05:32;97676.94;;;6.82;100.00
65756;BME280;52489;47.502;18.940;2023-03-31T05:06:35;97685.13;;;6.70;100.00
65756;BME280;52489;47.502;18.940;2023-03-31T05:07:38;97684.00;;;6.57;100.00
65756;BME280;52489;47.502;18.940;2023-03-31T05:08:41;97675.41;;;6.57;100.00
65756;BME280;52489;47.502;18.940;2023-03-31T05:09:44;97674.94;;;6.50;100.00
65756;BME280;52489;47.502;18.940;2023-03-31T05:10:48;97679.13;;;6.51;100.00
65756;BME280;52489;47.502;18.940;2023-03-31T05:11:51;97672.31;;;6.55;100.00
65756;BME280;52489;47.502;18.940;2023-03-31T05:12:54;97677.16;;;6.61;100.00
65756;BME280;52489;47.502;18.940;2023-03-31T05:13:56;97670.97;;;6.57;100.00
65756;BME280;52489;47.502;18.940;2023-03-31T05:14:59;97665.81;;;6.52;100.00
65756;BME280;52489;47.502;18.940;2023-03-31T05:16:07;97665.97;;;6.61;100.00
65756;BME280;52489;47.502;18.940;2023-03-31T05:17:11;97672.56;;;6.53;100.00
65756;BME280;52489;47.502;18.940;2023-03-31T05:18:14;97671.97;;;6.61;100.00
65756;BME280;52489;47.502;18.940;2023-03-31T05:19:16;97670.41;;;6.60;100.00
65756;BME280;52489;47.502;18.940;2023-03-31T05:20:20;97663.38;;;6.61;100.00
65756;BME280;52489;47.502;18.940;2023-03-31T05:21:23;97667.03;;;6.60;100.00
65756;BME280;52489;47.502;18.940;2023-03-31T05:22:28;97666.75;;;6.61;100.00
65756;BME280;52489;47.502;18.940;2023-03-31T05:23:30;97672.72;;;6.62;100.00
65756;BME280;52489;47.502;18.940;2023-03-31T05:24:33;97665.44;;;6.64;100.00
65756;BME280;52489;47.502;18.940;2023-03-31T05:25:36;97671.41;;;6.65;100.00
65756;BME280;52489;47.502;18.940;2023-03-31T05:26:39;97672.47;;;6.64;100.00
65756;BME280;52489;47.502;18.940;2023-03-31T05:27:46;97672.62;;;6.72;100.00
65756;BME280;52489;47.502;18.940;2023-03-31T05:28:52;97671.00;;;6.76;100.00
65756;BME280;52489;47.502;18.940;2023-03-31T05:29:55;97665.53;;;6.78;100.00
65756;BME280;52489;47.502;18.940;2023-03-31T05:30:59;97662.09;;;6.82;100.00
65756;BME280;52489;47.502;18.940;2023-03-31T05:32:03;97666.25;;;6.83;100.00
65756;BME280;52489;47.502;18.940;2023-03-31T05:33:06;97660.75;;;6.85;100.00
65756;BME280;52489;47.502;18.940;2023-03-31T05:34:09;97657.53;;;6.93;100.00
65756;BME280;52489;47.502;18.940;2023-03-31T05:35:12;97657.94;;;7.00;100.00
65756;BME280;52489;47.502;18.940;2023-03-31T05:36:16;97663.41;;;7.04;100.00
65756;BME280;52489;47.502;18.940;2023-03-31T05:37:19;97660.50;;;7.05;100.00
65756;BME280;52489;47.502;18.940;2023-03-31T05:38:22;97660.91;;;7.13;100.00
65756;BME280;52489;47.502;18.940;2023-03-31T05:39:24;97660.66;;;7.14;100.00
65756;BME280;52489;47.502;18.940;2023-03-31T05:40:27;97666.78;;;7.23;100.00
65756;BME280;52489;47.502;18.940;2023-03-31T05:41:30;97663.59;;;7.26;100.00
65756;BME280;52489;47.502;18.940;2023-03-31T05:42:33;97659.41;;;7.31;100.00
65756;BME280;52489;47.502;18.940;2023-03-31T05:43:37;97668.59;;;7.42;100.00
65756;BME280;52489;47.502;18.940;2023-03-31T05:44:39;97658.88;;;7.47;100.00
65756;BME280;52489;47.502;18.940;2023-03-31T05:45:42;97659.00;;;7.56;100.00
65756;BME280;52489;47.502;18.940;2023-03-31T05:46:45;97667.81;;;7.60;100.00
65756;BME280;52489;47.502;18.940;2023-03-31T05:47:51;97660.47;;;7.62;100.00
65756;BME280;52489;47.502;18.940;2023-03-31T05:48:54;97661.66;;;7.70;100.00
65756;BME280;52489;47.502;18.940;2023-03-31T05:49:57;97658.41;;;7.78;100.00
65756;BME280;52489;47.502;18.940;2023-03-31T05:51:01;97662.97;;;7.86;100.00
65756;BME280;52489;47.502;18.940;2023-03-31T05:52:07;97661.81;;;7.92;100.00
65756;BME280;52489;47.502;18.940;2023-03-31T05:53:10;97656.81;;;7.96;100.00
65756;BME280;52489;47.502;18.940;2023-03-31T05:54:13;97659.63;;;8.00;100.00
65756;BME280;52489;47.502;18.940;2023-03-31T05:55:16;97667.06;;;8.06;100.00
65756;BME280;52489;47.502;18.940;2023-03-31T05:56:19;97662.94;;;8.05;100.00
65756;BME280;52489;47.502;18.940;2023-03-31T05:57:23;97664.38;;;8.11;100.00
65756;BME280;52489;47.502;18.940;2023-03-31T05:58:27;97658.97;;;8.21;100.00
65756;BME280;52489;47.502;18.940;2023-03-31T05:59:29;97659.56;;;8.32;100.00
65756;BME280;52489;47.502;18.940;2023-03-31T06:00:34;97657.88;;;8.41;100.00
65756;BME280;52489;47.502;18.940;2023-03-31T06:01:37;97664.25;;;8.49;100.00
65756;BME280;52489;47.502;18.940;2023-03-31T06:02:40;97664.25;;;8.63;100.00
65756;BME280;52489;47.502;18.940;2023-03-31T06:03:44;97664.34;;;8.72;100.00
65756;BME280;52489;47.502;18.940;2023-03-31T06:04:48;97659.31;;;8.75;100.00
65756;BME280;52489;47.502;18.940;2023-03-31T06:05:51;97650.59;;;8.80;100.00
65756;BME280;52489;47.502;18.940;2023-03-31T06:06:55;97656.78;;;8.84;100.00
65756;BME280;52489;47.502;18.940;2023-03-31T06:07:59;97658.22;;;8.90;100.00
65756;BME280;52489;47.502;18.940;2023-03-31T06:09:03;97660.47;;;8.97;100.00
65756;BME280;52489;47.502;18.940;2023-03-31T06:10:06;97658.63;;;8.97;100.00
65756;BME280;52489;47.502;18.940;2023-03-31T06:11:17;97661.59;;;9.04;100.00
65756;BME280;52489;47.502;18.940;2023-03-31T06:12:20;97660.41;;;9.10;100.00
65756;BME280;52489;47.502;18.940;2023-03-31T06:13:23;97662.66;;;9.17;100.00
65756;BME280;52489;47.502;18.940;2023-03-31T06:14:26;97653.03;;;9.26;100.00
65756;BME280;52489;47.502;18.940;2023-03-31T06:15:29;97658.34;;;9.35;100.00
65756;BME280;52489;47.502;18.940;2023-03-31T06:16:33;97659.28;;;9.39;100.00
65756;BME280;52489;47.502;18.940;2023-03-31T06:17:36;97659.41;;;9.56;100.00
65756;BME280;52489;47.502;18.940;2023-03-31T06:18:43;97661.50;;;9.68;100.00
65756;BME280;52489;47.502;18.940;2023-03-31T06:19:46;97647.50;;;9.73;100.00
65756;BME280;52489;47.502;18.940;2023-03-31T06:20:50;97652.03;;;9.81;100.00
65756;BME280;52489;47.502;18.940;2023-03-31T06:21:53;97651.78;;;9.91;100.00
65756;BME280;52489;47.502;18.940;2023-03-31T06:22:56;97653.22;;;9.97;100.00
65756;BME280;52489;47.502;18.940;2023-03-31T06:23:59;97645.41;;;10.06;99.35
65756;BME280;52489;47.502;18.940;2023-03-31T06:25:02;97649.88;;;10.14;99.49